Weather History for O'Neill, NE

Change the Weather History Date:

Wednesday, February 6, 2013

  Actual Average Record
Temperature  
Mean Temperature 44 °F -  
Max Temperature 54 °F 31 °F 64 °F (1965)
Min Temperature 35 °F 9 °F -16 °F (1982)
Degree Days  
Heating Degree Days 20    
Moisture  
Dew Point 28 °F    
Average Humidity 60    
Maximum Humidity 78    
Minimum Humidity 33    
Precipitation  
Precipitation 0.00 in - - ()
Sea Level Pressure  
Sea Level Pressure 29.85 in    
Wind  
Wind Speed 11 mph (SSW)    
Max Wind Speed 18 mph    
Max Gust Speed 24 mph    
Visibility 10 miles    
Events      
Averages and records for this station are not official NWS values.
T = Trace of Precipitation, MM = Missing Value Source: NWS Daily Summary

Daily Weather History Graph

Daily Weather History Graph

Search for Another Location

Airport:

Trip Planner

Search our weather history database for the weather conditions in past years. The results will help you decide how hot, cold, wet, or windy it might be!

Date:

Astronomy

Feb. 06, 2013 Rise Set
Actual Time 7:42 AM CST 5:55 PM CST
Civil Twilight 7:13 AM CST 6:25 PM CST
Nautical Twilight 6:39 AM CST 6:58 PM CST
Astronomical Twilight 6:07 AM CST 7:31 PM CST
Moon 4:30 AM CST (2/6) 2:13 PM CST (2/6)
Length of Visible Light 11h 11m
Length of Day
10h 12m
Waning Crescent, 17% of the Moon is Illuminated
Feb 6
Waning Crescent
Feb 10
New
Feb 17
First Quarter
Feb 25
Full
Mar 4
Last Quarter

Hourly Weather History & Observations

Time (CST) Temp. Windchill Dew Point Humidity Pressure Visibility Wind Dir Wind Speed Gust Speed Precip Events Conditions
12:15 AM 35.4 °F 26.8 °F 24.8 °F 65% 29.96 in 10.0 mi SSE 12.7 mph - N/A   Overcast
12:35 AM 35.2 °F 26.6 °F 24.8 °F 66% 29.95 in 10.0 mi SSE 12.7 mph - N/A   Mostly Cloudy
12:55 AM 35.6 °F 27.5 °F 24.8 °F 65% 29.95 in 10.0 mi SSE 11.5 mph - N/A   Overcast
1:19 AM 35.6 °F 27.1 °F 24.8 °F 65% 29.93 in 10.0 mi SSE 12.7 mph - N/A   Overcast
1:35 AM 36.5 °F 27.8 °F 24.6 °F 62% 29.92 in 10.0 mi SSE 13.8 mph - N/A   Overcast
1:37 AM 37.4 °F 28.9 °F 24.8 °F 60% 29.92 in 10.0 mi SSE 13.8 mph - N/A   Overcast
2:15 AM 37.0 °F 28.9 °F 24.6 °F 61% 29.90 in 10.0 mi SSE 12.7 mph 17.3 mph N/A   Overcast
2:17 AM 37.4 °F 28.9 °F 24.8 °F 60% 29.90 in 10.0 mi SSE 13.8 mph 17.3 mph N/A   Overcast
2:35 AM 37.0 °F 28.9 °F 24.8 °F 61% 29.90 in 10.0 mi SSE 12.7 mph - N/A   Overcast
2:55 AM 36.7 °F 28.4 °F 25.0 °F 63% 29.90 in 10.0 mi SSE 12.7 mph - N/A   Overcast
3:15 AM 36.5 °F 28.7 °F 25.2 °F 64% 29.89 in 10.0 mi SSE 11.5 mph - N/A   Mostly Cloudy
3:35 AM 35.6 °F 28.6 °F 25.3 °F 66% 29.88 in 10.0 mi SSE 9.2 mph - N/A   Scattered Clouds
3:55 AM 35.6 °F 28.6 °F 26.4 °F 69% 29.86 in 10.0 mi SSE 9.2 mph - N/A   Mostly Cloudy
4:15 AM 36.0 °F 28.5 °F 27.5 °F 71% 29.85 in 10.0 mi SSE 10.4 mph - N/A   Scattered Clouds
4:35 AM 35.1 °F 27.9 °F 27.3 °F 73% 29.85 in 10.0 mi SSE 9.2 mph - N/A   Clear
4:55 AM 35.1 °F 26.9 °F 27.9 °F 75% 29.83 in 10.0 mi South 11.5 mph - N/A   Clear
5:15 AM 37.4 °F 28.5 °F 29.3 °F 73% 29.83 in 10.0 mi South 15.0 mph - N/A   Clear
5:35 AM 38.5 °F 29.2 °F 29.3 °F 70% 29.83 in 10.0 mi South 17.3 mph 23.0 mph N/A   Clear
5:55 AM 37.8 °F 28.3 °F 29.1 °F 71% 29.83 in 10.0 mi South 17.3 mph - N/A   Clear
6:15 AM 37.8 °F 28.0 °F 29.1 °F 71% 29.81 in 10.0 mi South 18.4 mph 24.2 mph N/A   Clear
6:35 AM 37.6 °F 28.4 °F 28.9 °F 71% 29.81 in 10.0 mi South 16.1 mph 23.0 mph N/A   Clear
6:55 AM 37.4 °F 28.2 °F 28.4 °F 70% 29.81 in 10.0 mi South 16.1 mph - N/A   Clear
7:15 AM 37.9 °F 29.2 °F 29.3 °F 71% 29.80 in 10.0 mi South 15.0 mph 20.7 mph N/A   Clear
7:35 AM 38.8 °F 30.8 °F 29.3 °F 69% 29.79 in 10.0 mi South 13.8 mph 21.9 mph N/A   Clear
7:55 AM 39.2 °F 31.2 °F 29.3 °F 68% 29.79 in 10.0 mi South 13.8 mph 18.4 mph N/A   Clear
8:15 AM 39.2 °F 32.0 °F 29.3 °F 68% 29.80 in 10.0 mi South 11.5 mph - N/A   Clear
8:35 AM 39.4 °F 33.2 °F 29.7 °F 68% 29.81 in 10.0 mi SSW 9.2 mph - N/A   Clear
8:55 AM 40.1 °F 32.7 °F 29.7 °F 66% 29.80 in 10.0 mi South 12.7 mph - N/A   Mostly Cloudy
9:15 AM 40.5 °F 33.6 °F 29.7 °F 65% 29.81 in 10.0 mi SSW 11.5 mph - N/A   Overcast
9:35 AM 41.4 °F 34.0 °F 29.8 °F 64% 29.80 in 10.0 mi SSW 13.8 mph - N/A   Overcast
9:55 AM 43.2 °F 35.9 °F 30.0 °F 60% 29.80 in 10.0 mi SSW 15.0 mph - N/A   Overcast
10:15 AM 44.6 °F 38.4 °F 29.3 °F 55% 29.81 in 10.0 mi SSW 12.7 mph - N/A   Overcast
10:35 AM 44.6 °F 38.4 °F 29.1 °F 55% 29.81 in 10.0 mi SSW 12.7 mph - N/A   Overcast
10:55 AM 45.3 °F 40.1 °F 29.3 °F 54% 29.81 in 10.0 mi SSW 10.4 mph 16.1 mph N/A   Overcast
11:15 AM 46.6 °F - 29.1 °F 51% 29.81 in 10.0 mi SSW 12.7 mph - N/A   Overcast
11:35 AM 47.5 °F - 28.9 °F 49% 29.81 in 10.0 mi SSW 10.4 mph - N/A   Overcast
11:55 AM 48.7 °F - 28.4 °F 45% 29.80 in 10.0 mi SW 10.4 mph - N/A   Overcast
12:15 PM 49.3 °F - 28.4 °F 45% 29.80 in 10.0 mi SSW 11.5 mph - N/A   Overcast
12:35 PM 49.3 °F - 28.4 °F 45% 29.79 in 10.0 mi South 11.5 mph - N/A   Mostly Cloudy
12:55 PM 49.8 °F - 28.4 °F 44% 29.79 in 10.0 mi SSW 10.4 mph - N/A   Scattered Clouds
1:15 PM 50.2 °F - 28.4 °F 43% 29.79 in 10.0 mi SSW 10.4 mph - N/A   Mostly Cloudy
1:35 PM 51.1 °F - 27.9 °F 41% 29.78 in 10.0 mi SSW 10.4 mph - N/A   Mostly Cloudy
1:55 PM 51.8 °F - 27.7 °F 39% 29.78 in 10.0 mi SW 8.1 mph - N/A   Scattered Clouds
2:15 PM 52.2 °F - 27.5 °F 39% 29.78 in 10.0 mi SSW 6.9 mph - N/A   Clear
2:35 PM 52.7 °F - 27.7 °F 38% 29.76 in 10.0 mi South 8.1 mph - N/A   Clear
2:55 PM 53.2 °F - 27.5 °F 37% 29.77 in 10.0 mi South 6.9 mph - N/A   Clear
3:15 PM 54.0 °F - 28.4 °F 37% 29.78 in 10.0 mi South 3.5 mph - N/A   Clear
3:35 PM 54.5 °F - 26.8 °F 34% 29.78 in 10.0 mi Calm Calm - N/A   Clear
3:55 PM 54.7 °F - 26.8 °F 34% 29.79 in 10.0 mi NW 4.6 mph - N/A   Clear
4:15 PM 54.5 °F - 26.1 °F 33% 29.79 in 10.0 mi NNW 5.8 mph - N/A   Clear
4:35 PM 52.9 °F - 27.0 °F 37% 29.80 in 10.0 mi North 8.1 mph - N/A   Clear
4:55 PM 51.4 °F - 27.7 °F 40% 29.81 in 10.0 mi North 8.1 mph - N/A   Clear
5:15 PM 49.3 °F - 28.9 °F 45% 29.82 in 10.0 mi North 10.4 mph - N/A   Scattered Clouds
5:35 PM 47.7 °F - 29.3 °F 49% 29.83 in 10.0 mi North 8.1 mph - N/A   Clear
5:55 PM 46.4 °F 42.9 °F 29.7 °F 52% 29.83 in 10.0 mi North 6.9 mph - N/A   Clear
6:15 PM 45.3 °F 42.3 °F 29.8 °F 55% 29.85 in 10.0 mi North 5.8 mph - N/A   Clear
6:35 PM 44.2 °F 40.3 °F 30.2 °F 58% 29.86 in 10.0 mi North 6.9 mph - N/A   Clear
6:55 PM 43.7 °F 39.1 °F 30.6 °F 60% 29.87 in 10.0 mi North 8.1 mph - N/A   Scattered Clouds
7:15 PM 42.4 °F 37.0 °F 30.2 °F 62% 29.87 in 10.0 mi North 9.2 mph - N/A   Scattered Clouds
7:35 PM 41.9 °F 37.5 °F 30.4 °F 64% 29.88 in 10.0 mi North 6.9 mph - N/A   Scattered Clouds
7:55 PM 41.0 °F 37.1 °F 30.2 °F 65% 29.89 in 10.0 mi North 5.8 mph - N/A   Clear
8:15 PM 39.9 °F 35.1 °F 29.8 °F 67% 29.91 in 10.0 mi North 6.9 mph - N/A   Clear
8:35 PM 39.7 °F 34.3 °F 29.8 °F 68% 29.91 in 10.0 mi North 8.1 mph - N/A   Clear
8:55 PM 39.4 °F 34.5 °F 29.3 °F 67% 29.92 in 10.0 mi North 6.9 mph - N/A   Clear
9:15 PM 37.4 °F 31.4 °F 29.1 °F 72% 29.92 in 10.0 mi North 8.1 mph - N/A   Clear
9:35 PM 35.6 °F 29.9 °F 28.8 °F 76% 29.93 in 10.0 mi NNW 6.9 mph - N/A   Clear
9:55 PM 36.1 °F 29.9 °F 29.1 °F 76% 29.93 in 10.0 mi NNW 8.1 mph - N/A   Clear
10:15 PM 36.9 °F 30.7 °F 29.5 °F 75% 29.95 in 10.0 mi NNW 8.1 mph - N/A   Clear
10:35 PM 36.7 °F 30.5 °F 29.7 °F 76% 29.95 in 10.0 mi NNW 8.1 mph - N/A   Clear
10:55 PM 36.5 °F 29.7 °F 29.8 °F 77% 29.96 in 10.0 mi NNW 9.2 mph - N/A   Scattered Clouds
11:15 PM 36.1 °F 30.6 °F 30.0 °F 78% 29.96 in 10.0 mi NNW 6.9 mph - N/A   Scattered Clouds
11:35 PM 36.5 °F 31.0 °F 30.0 °F 77% 29.96 in 10.0 mi NNW 6.9 mph - N/A   Clear
11:55 PM 36.1 °F 29.9 °F 30.0 °F 78% 29.97 in 10.0 mi NNW 8.1 mph - N/A   Clear